sensor_id;sensor_type;location;lat;lon;timestamp;P1;durP1;ratioP1;P2;durP2;ratioP2
37641;SDS011;23486;51.956;5.888;2022-08-25T00:00:29;3.55;;;1.08;;
37641;SDS011;23486;51.956;5.888;2022-08-25T00:02:55;3.17;;;0.85;;
37641;SDS011;23486;51.956;5.888;2022-08-25T00:05:23;4.00;;;1.00;;
37641;SDS011;23486;51.956;5.888;2022-08-25T00:07:50;4.63;;;1.23;;
37641;SDS011;23486;51.956;5.888;2022-08-25T00:10:15;3.42;;;0.98;;
37641;SDS011;23486;51.956;5.888;2022-08-25T00:12:41;2.60;;;0.90;;
37641;SDS011;23486;51.956;5.888;2022-08-25T00:15:07;3.15;;;1.08;;
37641;SDS011;23486;51.956;5.888;2022-08-25T00:17:33;4.47;;;1.15;;
37641;SDS011;23486;51.956;5.888;2022-08-25T00:19:59;7.55;;;1.05;;
37641;SDS011;23486;51.956;5.888;2022-08-25T00:22:25;3.05;;;1.10;;
37641;SDS011;23486;51.956;5.888;2022-08-25T00:24:50;2.92;;;0.90;;
37641;SDS011;23486;51.956;5.888;2022-08-25T00:27:16;3.20;;;1.08;;
37641;SDS011;23486;51.956;5.888;2022-08-25T00:29:42;2.58;;;1.00;;
37641;SDS011;23486;51.956;5.888;2022-08-25T00:32:07;2.85;;;1.30;;
37641;SDS011;23486;51.956;5.888;2022-08-25T00:34:38;2.90;;;1.30;;
37641;SDS011;23486;51.956;5.888;2022-08-25T00:37:04;2.58;;;0.88;;
37641;SDS011;23486;51.956;5.888;2022-08-25T00:39:31;3.28;;;1.23;;
37641;SDS011;23486;51.956;5.888;2022-08-25T00:41:57;2.53;;;1.10;;
37641;SDS011;23486;51.956;5.888;2022-08-25T00:44:24;2.47;;;1.20;;
37641;SDS011;23486;51.956;5.888;2022-08-25T00:46:52;2.72;;;1.13;;
37641;SDS011;23486;51.956;5.888;2022-08-25T00:49:28;2.58;;;1.05;;
37641;SDS011;23486;51.956;5.888;2022-08-25T00:52:13;4.00;;;1.10;;
37641;SDS011;23486;51.956;5.888;2022-08-25T00:54:45;3.42;;;1.08;;
37641;SDS011;23486;51.956;5.888;2022-08-25T00:57:26;2.00;;;1.02;;
37641;SDS011;23486;51.956;5.888;2022-08-25T00:59:55;3.20;;;1.10;;
37641;SDS011;23486;51.956;5.888;2022-08-25T01:02:21;3.72;;;1.30;;
37641;SDS011;23486;51.956;5.888;2022-08-25T01:04:47;3.28;;;1.08;;
37641;SDS011;23486;51.956;5.888;2022-08-25T01:07:14;2.97;;;1.10;;
37641;SDS011;23486;51.956;5.888;2022-08-25T01:09:41;3.60;;;1.23;;
37641;SDS011;23486;51.956;5.888;2022-08-25T01:12:08;3.20;;;1.00;;
37641;SDS011;23486;51.956;5.888;2022-08-25T01:14:34;2.95;;;1.10;;
37641;SDS011;23486;51.956;5.888;2022-08-25T01:17:01;6.55;;;1.40;;
37641;SDS011;23486;51.956;5.888;2022-08-25T01:19:27;3.63;;;0.98;;
37641;SDS011;23486;51.956;5.888;2022-08-25T01:21:54;3.92;;;1.00;;
37641;SDS011;23486;51.956;5.888;2022-08-25T01:27:10;6.28;;;1.20;;
37641;SDS011;23486;51.956;5.888;2022-08-25T01:29:36;2.80;;;1.27;;
37641;SDS011;23486;51.956;5.888;2022-08-25T01:32:04;3.63;;;1.63;;
37641;SDS011;23486;51.956;5.888;2022-08-25T01:34:33;2.53;;;1.15;;
37641;SDS011;23486;51.956;5.888;2022-08-25T01:37:01;3.67;;;1.30;;
37641;SDS011;23486;51.956;5.888;2022-08-25T01:39:28;3.20;;;1.58;;
37641;SDS011;23486;51.956;5.888;2022-08-25T01:44:36;3.38;;;1.20;;
37641;SDS011;23486;51.956;5.888;2022-08-25T01:47:04;3.70;;;1.02;;
37641;SDS011;23486;51.956;5.888;2022-08-25T01:49:30;4.28;;;1.40;;
37641;SDS011;23486;51.956;5.888;2022-08-25T01:55:06;2.42;;;1.30;;
37641;SDS011;23486;51.956;5.888;2022-08-25T01:57:32;3.20;;;1.25;;
37641;SDS011;23486;51.956;5.888;2022-08-25T01:59:58;5.07;;;1.17;;
37641;SDS011;23486;51.956;5.888;2022-08-25T02:02:24;3.35;;;1.25;;
37641;SDS011;23486;51.956;5.888;2022-08-25T02:04:50;3.25;;;1.20;;
37641;SDS011;23486;51.956;5.888;2022-08-25T02:07:16;2.72;;;1.10;;
37641;SDS011;23486;51.956;5.888;2022-08-25T02:09:41;3.08;;;1.50;;
37641;SDS011;23486;51.956;5.888;2022-08-25T02:12:08;1.98;;;0.98;;
37641;SDS011;23486;51.956;5.888;2022-08-25T02:14:34;4.20;;;1.60;;
37641;SDS011;23486;51.956;5.888;2022-08-25T02:17:00;2.42;;;1.02;;
37641;SDS011;23486;51.956;5.888;2022-08-25T02:19:28;5.07;;;1.48;;
37641;SDS011;23486;51.956;5.888;2022-08-25T02:21:55;2.85;;;1.45;;
37641;SDS011;23486;51.956;5.888;2022-08-25T02:24:21;4.22;;;1.50;;
37641;SDS011;23486;51.956;5.888;2022-08-25T02:26:47;4.65;;;1.30;;
37641;SDS011;23486;51.956;5.888;2022-08-25T02:29:13;3.03;;;1.25;;
37641;SDS011;23486;51.956;5.888;2022-08-25T02:31:38;3.55;;;1.23;;
37641;SDS011;23486;51.956;5.888;2022-08-25T02:34:04;5.15;;;1.73;;
37641;SDS011;23486;51.956;5.888;2022-08-25T02:36:31;3.80;;;1.27;;
37641;SDS011;23486;51.956;5.888;2022-08-25T02:38:57;5.68;;;1.20;;
37641;SDS011;23486;51.956;5.888;2022-08-25T02:41:23;2.78;;;1.10;;
37641;SDS011;23486;51.956;5.888;2022-08-25T02:43:50;2.75;;;0.85;;
37641;SDS011;23486;51.956;5.888;2022-08-25T02:46:16;3.58;;;1.30;;
37641;SDS011;23486;51.956;5.888;2022-08-25T02:48:44;5.00;;;1.10;;
37641;SDS011;23486;51.956;5.888;2022-08-25T02:51:10;2.63;;;1.48;;
37641;SDS011;23486;51.956;5.888;2022-08-25T02:53:36;2.50;;;0.98;;
37641;SDS011;23486;51.956;5.888;2022-08-25T02:56:04;2.28;;;1.00;;
37641;SDS011;23486;51.956;5.888;2022-08-25T02:58:31;4.15;;;1.27;;
37641;SDS011;23486;51.956;5.888;2022-08-25T03:00:56;3.47;;;1.38;;
37641;SDS011;23486;51.956;5.888;2022-08-25T03:03:22;3.33;;;1.20;;
37641;SDS011;23486;51.956;5.888;2022-08-25T03:05:47;3.75;;;1.40;;
37641;SDS011;23486;51.956;5.888;2022-08-25T03:08:13;3.15;;;0.90;;
37641;SDS011;23486;51.956;5.888;2022-08-25T03:10:39;3.90;;;1.27;;
37641;SDS011;23486;51.956;5.888;2022-08-25T03:13:05;2.63;;;0.90;;
37641;SDS011;23486;51.956;5.888;2022-08-25T03:15:31;5.13;;;1.80;;
37641;SDS011;23486;51.956;5.888;2022-08-25T03:17:57;3.35;;;1.40;;
37641;SDS011;23486;51.956;5.888;2022-08-25T03:20:23;4.88;;;1.42;;
37641;SDS011;23486;51.956;5.888;2022-08-25T03:22:50;3.58;;;1.77;;
37641;SDS011;23486;51.956;5.888;2022-08-25T03:25:16;3.10;;;1.30;;
37641;SDS011;23486;51.956;5.888;2022-08-25T03:28:00;5.70;;;1.77;;
37641;SDS011;23486;51.956;5.888;2022-08-25T03:30:27;3.20;;;1.20;;
37641;SDS011;23486;51.956;5.888;2022-08-25T03:32:54;5.53;;;1.65;;
37641;SDS011;23486;51.956;5.888;2022-08-25T03:35:20;4.82;;;1.52;;
37641;SDS011;23486;51.956;5.888;2022-08-25T03:37:46;5.25;;;1.52;;
37641;SDS011;23486;51.956;5.888;2022-08-25T03:40:12;5.03;;;1.65;;
37641;SDS011;23486;51.956;5.888;2022-08-25T03:42:42;2.58;;;1.08;;
37641;SDS011;23486;51.956;5.888;2022-08-25T03:45:09;3.08;;;1.40;;
37641;SDS011;23486;51.956;5.888;2022-08-25T03:47:37;3.47;;;1.08;;
37641;SDS011;23486;51.956;5.888;2022-08-25T03:50:05;3.63;;;1.13;;
37641;SDS011;23486;51.956;5.888;2022-08-25T03:52:32;4.85;;;1.65;;
37641;SDS011;23486;51.956;5.888;2022-08-25T03:54:58;3.92;;;1.50;;
37641;SDS011;23486;51.956;5.888;2022-08-25T03:57:24;5.57;;;1.48;;
37641;SDS011;23486;51.956;5.888;2022-08-25T03:59:50;4.53;;;1.20;;
37641;SDS011;23486;51.956;5.888;2022-08-25T04:02:16;3.53;;;1.48;;
37641;SDS011;23486;51.956;5.888;2022-08-25T04:04:42;4.40;;;1.48;;
37641;SDS011;23486;51.956;5.888;2022-08-25T04:07:07;3.35;;;1.48;;
37641;SDS011;23486;51.956;5.888;2022-08-25T04:09:33;2.80;;;1.13;;
37641;SDS011;23486;51.956;5.888;2022-08-25T04:11:59;3.55;;;1.60;;
37641;SDS011;23486;51.956;5.888;2022-08-25T04:14:25;8.55;;;1.90;;
37641;SDS011;23486;51.956;5.888;2022-08-25T04:16:51;2.80;;;1.40;;
37641;SDS011;23486;51.956;5.888;2022-08-25T04:19:17;4.32;;;1.60;;
37641;SDS011;23486;51.956;5.888;2022-08-25T04:21:42;6.15;;;1.55;;
37641;SDS011;23486;51.956;5.888;2022-08-25T04:24:09;4.28;;;1.60;;
37641;SDS011;23486;51.956;5.888;2022-08-25T04:26:37;5.13;;;1.88;;
37641;SDS011;23486;51.956;5.888;2022-08-25T04:29:07;3.42;;;1.50;;
37641;SDS011;23486;51.956;5.888;2022-08-25T04:31:34;3.78;;;1.52;;
37641;SDS011;23486;51.956;5.888;2022-08-25T04:34:01;6.00;;;1.15;;
37641;SDS011;23486;51.956;5.888;2022-08-25T04:36:28;5.30;;;1.40;;
37641;SDS011;23486;51.956;5.888;2022-08-25T04:38:55;4.00;;;2.20;;
37641;SDS011;23486;51.956;5.888;2022-08-25T04:41:21;4.03;;;1.50;;
37641;SDS011;23486;51.956;5.888;2022-08-25T04:43:48;3.63;;;1.50;;
37641;SDS011;23486;51.956;5.888;2022-08-25T04:46:19;5.18;;;1.77;;
37641;SDS011;23486;51.956;5.888;2022-08-25T04:48:47;4.63;;;1.83;;
37641;SDS011;23486;51.956;5.888;2022-08-25T04:51:15;4.28;;;1.77;;
37641;SDS011;23486;51.956;5.888;2022-08-25T04:53:47;6.25;;;1.60;;
37641;SDS011;23486;51.956;5.888;2022-08-25T04:56:14;3.10;;;1.42;;
37641;SDS011;23486;51.956;5.888;2022-08-25T04:58:42;4.75;;;1.80;;
37641;SDS011;23486;51.956;5.888;2022-08-25T05:01:10;3.65;;;1.55;;
37641;SDS011;23486;51.956;5.888;2022-08-25T05:03:41;5.40;;;1.75;;
37641;SDS011;23486;51.956;5.888;2022-08-25T05:06:07;4.43;;;1.85;;
37641;SDS011;23486;51.956;5.888;2022-08-25T05:08:34;4.25;;;2.00;;
37641;SDS011;23486;51.956;5.888;2022-08-25T05:11:07;4.07;;;2.00;;
37641;SDS011;23486;51.956;5.888;2022-08-25T05:13:34;4.72;;;2.05;;
37641;SDS011;23486;51.956;5.888;2022-08-25T05:16:00;5.75;;;1.63;;
37641;SDS011;23486;51.956;5.888;2022-08-25T05:18:27;4.13;;;1.85;;
37641;SDS011;23486;51.956;5.888;2022-08-25T05:20:54;3.50;;;1.70;;
37641;SDS011;23486;51.956;5.888;2022-08-25T05:23:23;4.82;;;1.90;;
37641;SDS011;23486;51.956;5.888;2022-08-25T05:25:50;5.32;;;1.88;;
37641;SDS011;23486;51.956;5.888;2022-08-25T05:28:16;4.45;;;1.90;;
37641;SDS011;23486;51.956;5.888;2022-08-25T05:30:43;5.65;;;1.80;;
37641;SDS011;23486;51.956;5.888;2022-08-25T05:33:10;3.15;;;1.50;;
37641;SDS011;23486;51.956;5.888;2022-08-25T05:35:37;4.00;;;1.65;;
37641;SDS011;23486;51.956;5.888;2022-08-25T05:38:03;4.95;;;2.08;;
37641;SDS011;23486;51.956;5.888;2022-08-25T05:40:30;3.67;;;1.77;;
37641;SDS011;23486;51.956;5.888;2022-08-25T05:42:56;4.05;;;1.58;;
37641;SDS011;23486;51.956;5.888;2022-08-25T05:45:22;4.18;;;1.75;;
37641;SDS011;23486;51.956;5.888;2022-08-25T05:47:48;4.45;;;2.22;;
37641;SDS011;23486;51.956;5.888;2022-08-25T05:50:14;4.80;;;1.88;;
37641;SDS011;23486;51.956;5.888;2022-08-25T05:52:40;6.75;;;2.38;;
37641;SDS011;23486;51.956;5.888;2022-08-25T05:55:06;3.90;;;1.70;;
37641;SDS011;23486;51.956;5.888;2022-08-25T05:57:32;8.57;;;2.70;;
37641;SDS011;23486;51.956;5.888;2022-08-25T05:59:58;6.60;;;1.95;;
37641;SDS011;23486;51.956;5.888;2022-08-25T06:02:24;3.60;;;2.13;;
37641;SDS011;23486;51.956;5.888;2022-08-25T06:05:09;3.40;;;1.67;;
37641;SDS011;23486;51.956;5.888;2022-08-25T06:07:37;3.65;;;1.50;;
37641;SDS011;23486;51.956;5.888;2022-08-25T06:10:04;5.18;;;1.70;;
37641;SDS011;23486;51.956;5.888;2022-08-25T06:12:31;6.00;;;2.00;;
37641;SDS011;23486;51.956;5.888;2022-08-25T06:15:00;6.05;;;2.30;;
37641;SDS011;23486;51.956;5.888;2022-08-25T06:17:26;3.90;;;1.40;;
37641;SDS011;23486;51.956;5.888;2022-08-25T06:19:51;6.38;;;1.90;;
37641;SDS011;23486;51.956;5.888;2022-08-25T06:22:18;5.22;;;2.42;;
37641;SDS011;23486;51.956;5.888;2022-08-25T06:24:45;4.60;;;1.80;;
37641;SDS011;23486;51.956;5.888;2022-08-25T06:27:11;3.33;;;1.83;;
37641;SDS011;23486;51.956;5.888;2022-08-25T06:29:37;6.45;;;2.38;;
37641;SDS011;23486;51.956;5.888;2022-08-25T06:32:03;3.97;;;1.70;;
37641;SDS011;23486;51.956;5.888;2022-08-25T06:34:29;4.55;;;2.13;;
37641;SDS011;23486;51.956;5.888;2022-08-25T06:36:58;6.70;;;2.17;;
37641;SDS011;23486;51.956;5.888;2022-08-25T06:39:23;3.25;;;1.45;;
37641;SDS011;23486;51.956;5.888;2022-08-25T06:41:50;6.35;;;2.05;;
37641;SDS011;23486;51.956;5.888;2022-08-25T06:44:16;7.78;;;2.28;;
37641;SDS011;23486;51.956;5.888;2022-08-25T06:46:42;3.25;;;1.85;;
37641;SDS011;23486;51.956;5.888;2022-08-25T06:49:08;5.93;;;1.98;;
37641;SDS011;23486;51.956;5.888;2022-08-25T06:51:34;7.13;;;2.20;;
37641;SDS011;23486;51.956;5.888;2022-08-25T06:54:00;3.45;;;1.65;;
37641;SDS011;23486;51.956;5.888;2022-08-25T06:56:25;5.47;;;1.60;;
37641;SDS011;23486;51.956;5.888;2022-08-25T06:58:51;8.15;;;2.58;;
37641;SDS011;23486;51.956;5.888;2022-08-25T07:01:21;5.20;;;2.30;;
37641;SDS011;23486;51.956;5.888;2022-08-25T07:03:51;3.67;;;1.80;;
37641;SDS011;23486;51.956;5.888;2022-08-25T07:06:22;4.55;;;2.05;;
37641;SDS011;23486;51.956;5.888;2022-08-25T07:08:49;8.07;;;2.67;;
37641;SDS011;23486;51.956;5.888;2022-08-25T07:11:15;4.38;;;1.83;;
37641;SDS011;23486;51.956;5.888;2022-08-25T07:13:42;4.90;;;2.33;;
37641;SDS011;23486;51.956;5.888;2022-08-25T07:16:08;3.88;;;1.92;;
37641;SDS011;23486;51.956;5.888;2022-08-25T07:18:37;4.28;;;1.95;;
37641;SDS011;23486;51.956;5.888;2022-08-25T07:21:03;4.57;;;1.95;;
37641;SDS011;23486;51.956;5.888;2022-08-25T07:23:29;3.17;;;1.77;;
37641;SDS011;23486;51.956;5.888;2022-08-25T07:25:55;5.80;;;1.88;;
37641;SDS011;23486;51.956;5.888;2022-08-25T07:28:21;5.18;;;2.28;;
37641;SDS011;23486;51.956;5.888;2022-08-25T07:30:48;4.20;;;1.88;;
37641;SDS011;23486;51.956;5.888;2022-08-25T07:33:15;7.13;;;2.13;;
37641;SDS011;23486;51.956;5.888;2022-08-25T07:35:40;6.93;;;2.08;;
37641;SDS011;23486;51.956;5.888;2022-08-25T07:38:06;4.03;;;1.73;;
37641;SDS011;23486;51.956;5.888;2022-08-25T07:40:33;4.75;;;1.67;;
37641;SDS011;23486;51.956;5.888;2022-08-25T07:43:01;4.25;;;1.45;;
37641;SDS011;23486;51.956;5.888;2022-08-25T07:45:30;3.88;;;1.20;;
37641;SDS011;23486;51.956;5.888;2022-08-25T07:47:58;5.63;;;1.65;;
37641;SDS011;23486;51.956;5.888;2022-08-25T07:50:26;4.40;;;1.42;;
37641;SDS011;23486;51.956;5.888;2022-08-25T08:51:52;4.05;;;1.23;;
37641;SDS011;23486;51.956;5.888;2022-08-25T08:54:23;3.15;;;1.05;;
37641;SDS011;23486;51.956;5.888;2022-08-25T08:57:02;3.08;;;1.17;;
37641;SDS011;23486;51.956;5.888;2022-08-25T08:59:41;3.03;;;1.20;;
37641;SDS011;23486;51.956;5.888;2022-08-25T09:02:23;4.60;;;1.27;;
37641;SDS011;23486;51.956;5.888;2022-08-25T09:04:58;4.70;;;1.20;;
37641;SDS011;23486;51.956;5.888;2022-08-25T09:07:33;2.97;;;1.30;;
37641;SDS011;23486;51.956;5.888;2022-08-25T09:10:03;3.30;;;1.10;;
37641;SDS011;23486;51.956;5.888;2022-08-25T09:12:36;3.13;;;1.10;;
37641;SDS011;23486;51.956;5.888;2022-08-25T09:15:27;4.15;;;1.27;;
37641;SDS011;23486;51.956;5.888;2022-08-25T09:24:13;6.75;;;1.38;;
37641;SDS011;23486;51.956;5.888;2022-08-25T09:26:53;3.40;;;1.00;;
37641;SDS011;23486;51.956;5.888;2022-08-25T09:29:46;2.80;;;1.15;;
37641;SDS011;23486;51.956;5.888;2022-08-25T09:32:25;4.38;;;1.33;;
37641;SDS011;23486;51.956;5.888;2022-08-25T09:34:53;2.58;;;1.10;;
37641;SDS011;23486;51.956;5.888;2022-08-25T09:37:20;3.40;;;1.25;;
37641;SDS011;23486;51.956;5.888;2022-08-25T09:39:47;2.08;;;1.10;;
37641;SDS011;23486;51.956;5.888;2022-08-25T09:42:12;4.82;;;1.00;;
37641;SDS011;23486;51.956;5.888;2022-08-25T09:44:40;3.85;;;1.33;;
37641;SDS011;23486;51.956;5.888;2022-08-25T09:49:45;3.75;;;1.17;;
37641;SDS011;23486;51.956;5.888;2022-08-25T10:05:32;3.90;;;0.90;;
37641;SDS011;23486;51.956;5.888;2022-08-25T10:08:03;5.63;;;1.52;;
37641;SDS011;23486;51.956;5.888;2022-08-25T10:10:39;3.47;;;1.20;;
37641;SDS011;23486;51.956;5.888;2022-08-25T10:13:18;2.22;;;1.00;;
37641;SDS011;23486;51.956;5.888;2022-08-25T10:15:45;2.70;;;1.13;;
37641;SDS011;23486;51.956;5.888;2022-08-25T10:20:42;3.53;;;1.20;;
37641;SDS011;23486;51.956;5.888;2022-08-25T10:23:09;4.50;;;1.08;;
37641;SDS011;23486;51.956;5.888;2022-08-25T10:25:40;3.17;;;0.90;;
37641;SDS011;23486;51.956;5.888;2022-08-25T10:34:02;2.60;;;0.80;;
37641;SDS011;23486;51.956;5.888;2022-08-25T10:42:02;3.50;;;1.13;;
37641;SDS011;23486;51.956;5.888;2022-08-25T10:44:41;2.33;;;0.65;;
37641;SDS011;23486;51.956;5.888;2022-08-25T10:58:24;2.05;;;1.00;;
37641;SDS011;23486;51.956;5.888;2022-08-25T11:01:13;3.50;;;0.70;;
37641;SDS011;23486;51.956;5.888;2022-08-25T11:03:44;1.40;;;0.60;;
37641;SDS011;23486;51.956;5.888;2022-08-25T11:09:20;1.85;;;0.60;;
37641;SDS011;23486;51.956;5.888;2022-08-25T11:14:22;2.53;;;0.60;;
37641;SDS011;23486;51.956;5.888;2022-08-25T11:22:03;1.98;;;0.70;;
37641;SDS011;23486;51.956;5.888;2022-08-25T11:25:01;2.42;;;0.70;;
37641;SDS011;23486;51.956;5.888;2022-08-25T11:30:34;2.83;;;0.60;;
37641;SDS011;23486;51.956;5.888;2022-08-25T11:33:02;1.90;;;0.70;;
37641;SDS011;23486;51.956;5.888;2022-08-25T11:38:08;2.47;;;0.67;;
37641;SDS011;23486;51.956;5.888;2022-08-25T11:43:32;2.22;;;0.60;;
37641;SDS011;23486;51.956;5.888;2022-08-25T11:51:41;1.45;;;0.60;;
37641;SDS011;23486;51.956;5.888;2022-08-25T11:54:22;3.60;;;0.60;;
37641;SDS011;23486;51.956;5.888;2022-08-25T11:56:54;2.55;;;0.60;;
37641;SDS011;23486;51.956;5.888;2022-08-25T12:04:58;2.00;;;0.50;;
37641;SDS011;23486;51.956;5.888;2022-08-25T12:07:25;2.25;;;0.60;;
37641;SDS011;23486;51.956;5.888;2022-08-25T12:13:02;1.30;;;0.50;;
37641;SDS011;23486;51.956;5.888;2022-08-25T12:23:33;2.95;;;0.70;;
37641;SDS011;23486;51.956;5.888;2022-08-25T12:29:09;1.73;;;0.60;;
37641;SDS011;23486;51.956;5.888;2022-08-25T12:37:24;7.32;;;0.57;;
37641;SDS011;23486;51.956;5.888;2022-08-25T12:39:56;2.28;;;0.70;;
37641;SDS011;23486;51.956;5.888;2022-08-25T12:42:31;2.67;;;0.60;;
37641;SDS011;23486;51.956;5.888;2022-08-25T12:47:57;1.65;;;0.60;;
37641;SDS011;23486;51.956;5.888;2022-08-25T12:50:55;1.85;;;0.60;;
37641;SDS011;23486;51.956;5.888;2022-08-25T12:58:34;1.90;;;0.55;;
37641;SDS011;23486;51.956;5.888;2022-08-25T13:01:25;2.25;;;0.63;;
37641;SDS011;23486;51.956;5.888;2022-08-25T13:15:35;2.08;;;0.60;;
37641;SDS011;23486;51.956;5.888;2022-08-25T13:18:12;2.00;;;0.50;;
37641;SDS011;23486;51.956;5.888;2022-08-25T13:20:39;2.78;;;0.52;;
37641;SDS011;23486;51.956;5.888;2022-08-25T14:24:09;1.52;;;0.40;;
37641;SDS011;23486;51.956;5.888;2022-08-25T14:26:40;1.10;;;0.40;;
37641;SDS011;23486;51.956;5.888;2022-08-25T14:29:06;1.30;;;0.43;;
37641;SDS011;23486;51.956;5.888;2022-08-25T14:31:33;1.33;;;0.60;;
37641;SDS011;23486;51.956;5.888;2022-08-25T14:34:04;3.50;;;0.50;;
37641;SDS011;23486;51.956;5.888;2022-08-25T14:36:33;1.02;;;0.40;;
37641;SDS011;23486;51.956;5.888;2022-08-25T14:39:00;1.80;;;0.45;;
37641;SDS011;23486;51.956;5.888;2022-08-25T14:41:30;1.13;;;0.40;;
37641;SDS011;23486;51.956;5.888;2022-08-25T14:44:01;1.27;;;0.40;;
37641;SDS011;23486;51.956;5.888;2022-08-25T14:46:29;1.90;;;0.40;;
37641;SDS011;23486;51.956;5.888;2022-08-25T15:16:26;3.40;;;0.50;;
37641;SDS011;23486;51.956;5.888;2022-08-25T15:18:58;1.25;;;0.40;;
37641;SDS011;23486;51.956;5.888;2022-08-25T15:21:24;0.82;;;0.40;;
37641;SDS011;23486;51.956;5.888;2022-08-25T15:23:50;0.95;;;0.40;;
37641;SDS011;23486;51.956;5.888;2022-08-25T15:26:15;2.88;;;0.40;;
37641;SDS011;23486;51.956;5.888;2022-08-25T15:28:42;1.27;;;0.47;;
37641;SDS011;23486;51.956;5.888;2022-08-25T15:31:11;1.38;;;0.40;;
37641;SDS011;23486;51.956;5.888;2022-08-25T15:33:37;1.75;;;0.38;;
37641;SDS011;23486;51.956;5.888;2022-08-25T15:36:04;0.95;;;0.40;;
37641;SDS011;23486;51.956;5.888;2022-08-25T15:38:35;1.00;;;0.30;;
37641;SDS011;23486;51.956;5.888;2022-08-25T15:41:01;1.27;;;0.40;;
37641;SDS011;23486;51.956;5.888;2022-08-25T15:43:28;1.67;;;0.40;;
37641;SDS011;23486;51.956;5.888;2022-08-25T15:45:53;3.30;;;0.40;;
37641;SDS011;23486;51.956;5.888;2022-08-25T15:48:19;0.55;;;0.20;;
37641;SDS011;23486;51.956;5.888;2022-08-25T15:50:44;1.42;;;0.38;;
37641;SDS011;23486;51.956;5.888;2022-08-25T15:53:11;3.22;;;0.40;;
37641;SDS011;23486;51.956;5.888;2022-08-25T15:55:37;1.15;;;0.40;;
37641;SDS011;23486;51.956;5.888;2022-08-25T15:58:04;0.88;;;0.40;;
37641;SDS011;23486;51.956;5.888;2022-08-25T16:00:29;2.03;;;0.40;;
37641;SDS011;23486;51.956;5.888;2022-08-25T16:02:55;0.90;;;0.40;;
37641;SDS011;23486;51.956;5.888;2022-08-25T16:05:21;1.23;;;0.40;;
37641;SDS011;23486;51.956;5.888;2022-08-25T16:07:47;1.10;;;0.40;;
37641;SDS011;23486;51.956;5.888;2022-08-25T16:10:13;1.63;;;0.65;;
37641;SDS011;23486;51.956;5.888;2022-08-25T16:12:39;1.23;;;0.40;;
37641;SDS011;23486;51.956;5.888;2022-08-25T16:15:06;3.50;;;0.40;;
37641;SDS011;23486;51.956;5.888;2022-08-25T16:17:32;1.52;;;0.45;;
37641;SDS011;23486;51.956;5.888;2022-08-25T16:19:57;0.90;;;0.40;;
37641;SDS011;23486;51.956;5.888;2022-08-25T16:22:23;1.15;;;0.50;;
37641;SDS011;23486;51.956;5.888;2022-08-25T16:24:49;2.05;;;0.40;;
37641;SDS011;23486;51.956;5.888;2022-08-25T16:27:15;2.58;;;0.40;;
37641;SDS011;23486;51.956;5.888;2022-08-25T16:29:42;2.45;;;0.40;;
37641;SDS011;23486;51.956;5.888;2022-08-25T16:32:09;3.92;;;0.60;;
37641;SDS011;23486;51.956;5.888;2022-08-25T16:34:36;1.38;;;0.50;;
37641;SDS011;23486;51.956;5.888;2022-08-25T16:37:02;0.90;;;0.30;;
37641;SDS011;23486;51.956;5.888;2022-08-25T16:39:28;1.85;;;0.40;;
37641;SDS011;23486;51.956;5.888;2022-08-25T16:41:53;1.13;;;0.50;;
37641;SDS011;23486;51.956;5.888;2022-08-25T16:44:19;1.50;;;0.77;;
37641;SDS011;23486;51.956;5.888;2022-08-25T16:46:45;1.83;;;0.40;;
37641;SDS011;23486;51.956;5.888;2022-08-25T16:49:11;1.80;;;0.43;;
37641;SDS011;23486;51.956;5.888;2022-08-25T16:51:38;1.00;;;0.40;;
37641;SDS011;23486;51.956;5.888;2022-08-25T16:54:06;0.90;;;0.40;;
37641;SDS011;23486;51.956;5.888;2022-08-25T16:56:51;2.35;;;0.50;;
37641;SDS011;23486;51.956;5.888;2022-08-25T16:59:17;0.98;;;0.38;;
37641;SDS011;23486;51.956;5.888;2022-08-25T17:01:43;1.25;;;0.40;;
37641;SDS011;23486;51.956;5.888;2022-08-25T17:04:09;0.98;;;0.40;;
37641;SDS011;23486;51.956;5.888;2022-08-25T17:06:37;2.55;;;0.50;;
37641;SDS011;23486;51.956;5.888;2022-08-25T17:09:06;2.55;;;0.40;;
37641;SDS011;23486;51.956;5.888;2022-08-25T17:11:34;1.40;;;0.40;;
37641;SDS011;23486;51.956;5.888;2022-08-25T17:14:06;1.30;;;0.45;;
37641;SDS011;23486;51.956;5.888;2022-08-25T17:16:32;1.85;;;0.50;;
37641;SDS011;23486;51.956;5.888;2022-08-25T17:18:59;1.33;;;0.50;;
37641;SDS011;23486;51.956;5.888;2022-08-25T17:21:30;1.35;;;0.50;;
37641;SDS011;23486;51.956;5.888;2022-08-25T17:23:57;1.48;;;0.50;;
37641;SDS011;23486;51.956;5.888;2022-08-25T17:26:23;3.25;;;0.52;;
37641;SDS011;23486;51.956;5.888;2022-08-25T17:28:50;1.80;;;0.70;;
37641;SDS011;23486;51.956;5.888;2022-08-25T17:31:16;1.23;;;0.40;;
37641;SDS011;23486;51.956;5.888;2022-08-25T17:33:43;2.20;;;0.63;;
37641;SDS011;23486;51.956;5.888;2022-08-25T17:36:09;2.30;;;0.55;;
37641;SDS011;23486;51.956;5.888;2022-08-25T17:38:36;2.00;;;0.63;;
37641;SDS011;23486;51.956;5.888;2022-08-25T17:41:03;2.72;;;0.70;;
37641;SDS011;23486;51.956;5.888;2022-08-25T17:43:31;1.70;;;0.52;;
37641;SDS011;23486;51.956;5.888;2022-08-25T17:45:59;1.73;;;0.52;;
37641;SDS011;23486;51.956;5.888;2022-08-25T17:48:25;2.28;;;0.70;;
37641;SDS011;23486;51.956;5.888;2022-08-25T17:50:52;1.65;;;0.50;;
37641;SDS011;23486;51.956;5.888;2022-08-25T17:53:18;1.13;;;0.50;;
37641;SDS011;23486;51.956;5.888;2022-08-25T17:55:44;1.33;;;0.50;;
37641;SDS011;23486;51.956;5.888;2022-08-25T17:58:11;2.67;;;0.70;;
37641;SDS011;23486;51.956;5.888;2022-08-25T18:00:38;3.25;;;0.60;;
37641;SDS011;23486;51.956;5.888;2022-08-25T18:03:04;1.73;;;0.50;;
37641;SDS011;23486;51.956;5.888;2022-08-25T18:05:31;1.67;;;0.52;;
37641;SDS011;23486;51.956;5.888;2022-08-25T18:07:58;2.20;;;0.57;;
37641;SDS011;23486;51.956;5.888;2022-08-25T18:10:24;3.42;;;0.80;;
37641;SDS011;23486;51.956;5.888;2022-08-25T18:12:50;1.77;;;0.73;;
37641;SDS011;23486;51.956;5.888;2022-08-25T18:15:16;4.75;;;0.70;;
37641;SDS011;23486;51.956;5.888;2022-08-25T18:17:43;2.50;;;0.90;;
37641;SDS011;23486;51.956;5.888;2022-08-25T18:20:09;2.60;;;0.80;;
37641;SDS011;23486;51.956;5.888;2022-08-25T18:22:37;2.70;;;0.70;;
37641;SDS011;23486;51.956;5.888;2022-08-25T18:25:05;2.35;;;0.63;;
37641;SDS011;23486;51.956;5.888;2022-08-25T18:27:33;1.73;;;0.80;;
37641;SDS011;23486;51.956;5.888;2022-08-25T18:29:59;1.50;;;0.70;;
37641;SDS011;23486;51.956;5.888;2022-08-25T18:32:25;2.15;;;0.82;;
37641;SDS011;23486;51.956;5.888;2022-08-25T18:34:52;2.00;;;0.80;;
37641;SDS011;23486;51.956;5.888;2022-08-25T18:37:19;2.03;;;0.90;;
37641;SDS011;23486;51.956;5.888;2022-08-25T18:40:04;2.45;;;1.02;;
37641;SDS011;23486;51.956;5.888;2022-08-25T18:45:25;2.47;;;1.38;;
37641;SDS011;23486;51.956;5.888;2022-08-25T18:47:53;4.22;;;2.58;;
37641;SDS011;23486;51.956;5.888;2022-08-25T18:50:22;3.30;;;1.80;;
37641;SDS011;23486;51.956;5.888;2022-08-25T18:52:52;4.13;;;1.83;;
37641;SDS011;23486;51.956;5.888;2022-08-25T18:55:18;5.03;;;2.85;;
37641;SDS011;23486;51.956;5.888;2022-08-25T18:57:44;5.30;;;2.03;;
37641;SDS011;23486;51.956;5.888;2022-08-25T19:00:11;2.72;;;1.70;;
37641;SDS011;23486;51.956;5.888;2022-08-25T19:02:44;2.65;;;1.30;;
37641;SDS011;23486;51.956;5.888;2022-08-25T19:05:10;3.45;;;1.42;;
37641;SDS011;23486;51.956;5.888;2022-08-25T19:07:36;4.75;;;1.30;;
37641;SDS011;23486;51.956;5.888;2022-08-25T19:10:03;3.72;;;1.40;;
37641;SDS011;23486;51.956;5.888;2022-08-25T19:12:28;4.63;;;1.73;;
37641;SDS011;23486;51.956;5.888;2022-08-25T19:14:54;6.13;;;1.60;;
37641;SDS011;23486;51.956;5.888;2022-08-25T19:17:20;2.50;;;1.00;;
37641;SDS011;23486;51.956;5.888;2022-08-25T19:19:46;2.08;;;0.85;;
37641;SDS011;23486;51.956;5.888;2022-08-25T19:22:11;3.65;;;1.08;;
37641;SDS011;23486;51.956;5.888;2022-08-25T19:24:37;4.35;;;1.35;;
37641;SDS011;23486;51.956;5.888;2022-08-25T19:27:03;3.88;;;1.58;;
37641;SDS011;23486;51.956;5.888;2022-08-25T19:29:29;3.85;;;1.00;;